Time;durP1;ratioP1;P1;durP2;ratioP2;P2;SDS_P1;SDS_P2;PMS_P1;PMS_P2;Temp;Humidity;BMP_temperature;BMP_pressure;BME280_temperature;BME280_humidity;BME280_pressure;Samples;Min_cycle;Max_cycle;Signal;HPM_P1;HPM_P2
2021/08/12 00:00:29;;;;;;;2.28;2.05;;;;;;;;;;5079781;28;20028;-57
2021/08/12 00:02:55;;;;;;;2.70;2.50;;;;;;;;;;5088762;28;20027;-57
2021/08/12 00:05:21;;;;;;;3.08;2.50;;;;;;;;;;5088953;28;20084;-57
2021/08/12 00:07:48;;;;;;;2.67;2.40;;;;;;;;;;5089822;28;20109;-57
2021/08/12 00:10:14;;;;;;;2.95;2.33;;;;;;;;;;5089854;28;20024;-57
2021/08/12 00:12:40;;;;;;;2.38;2.17;;;;;;;;;;5089832;28;20101;-57
2021/08/12 00:15:06;;;;;;;2.65;2.25;;;;;;;;;;5090043;28;20047;-57
2021/08/12 00:17:33;;;;;;;3.30;2.55;;;;;;;;;;5089503;28;20020;-57
2021/08/12 00:19:59;;;;;;;2.80;2.47;;;;;;;;;;5088524;28;20089;-57
2021/08/12 00:22:25;;;;;;;3.05;2.63;;;;;;;;;;5090134;28;20099;-57
2021/08/12 00:24:51;;;;;;;2.50;2.30;;;;;;;;;;5089719;28;20032;-57
2021/08/12 00:27:17;;;;;;;3.28;2.70;;;;;;;;;;5089997;28;20572;-57
2021/08/12 00:29:43;;;;;;;2.95;2.65;;;;;;;;;;5070827;28;20509;-57
2021/08/12 00:32:09;;;;;;;3.25;2.67;;;;;;;;;;5089374;28;20550;-57
2021/08/12 00:34:35;;;;;;;3.03;2.30;;;;;;;;;;5089436;28;20598;-57
2021/08/12 00:37:05;;;;;;;3.08;2.63;;;;;;;;;;5089361;28;20101;-57
2021/08/12 00:39:31;;;;;;;2.60;2.40;;;;;;;;;;5089463;28;20550;-57
2021/08/12 00:41:57;;;;;;;2.92;2.58;;;;;;;;;;5089366;28;20028;-57
2021/08/12 00:44:23;;;;;;;3.03;2.20;;;;;;;;;;5088814;28;20034;-57
2021/08/12 00:46:49;;;;;;;4.68;2.90;;;;;;;;;;5089078;28;20024;-57
2021/08/12 00:49:15;;;;;;;2.80;2.60;;;;;;;;;;5088322;28;20024;-56
2021/08/12 00:51:41;;;;;;;2.47;2.20;;;;;;;;;;5087907;28;20440;-57
2021/08/12 00:54:08;;;;;;;2.63;1.98;;;;;;;;;;5089332;28;20111;-57
2021/08/12 00:56:34;;;;;;;3.03;2.40;;;;;;;;;;5088949;28;20054;-57
2021/08/12 00:59:00;;;;;;;2.40;2.13;;;;;;;;;;5088899;28;20534;-57
2021/08/12 01:01:26;;;;;;;2.67;2.40;;;;;;;;;;5088939;28;20105;-57
2021/08/12 01:03:52;;;;;;;3.00;2.60;;;;;;;;;;5088890;28;20734;-57
2021/08/12 01:06:23;;;;;;;3.10;2.50;;;;;;;;;;5088852;28;20063;-57
2021/08/12 01:08:58;;;;;;;2.90;2.60;;;;;;;;;;5088896;28;20440;-57
2021/08/12 01:11:40;;;;;;;2.35;2.15;;;;;;;;;;5089070;28;20028;-57
2021/08/12 01:14:09;;;;;;;2.50;2.30;;;;;;;;;;5088997;28;20395;-57
2021/08/12 01:16:39;;;;;;;2.42;2.20;;;;;;;;;;5086052;28;20402;-57
2021/08/12 01:19:21;;;;;;;2.50;2.30;;;;;;;;;;5088458;28;20727;-56
2021/08/12 01:21:47;;;;;;;2.38;2.17;;;;;;;;;;5088288;28;20034;-57
2021/08/12 01:24:14;;;;;;;2.47;1.95;;;;;;;;;;5088916;28;20035;-57
2021/08/12 01:26:41;;;;;;;2.38;1.92;;;;;;;;;;5070054;28;20474;-57
2021/08/12 01:29:10;;;;;;;2.53;2.20;;;;;;;;;;5088554;28;20031;-57
2021/08/12 01:31:55;;;;;;;2.60;2.40;;;;;;;;;;5088537;28;20031;-57
2021/08/12 01:34:24;;;;;;;3.47;2.47;;;;;;;;;;5088451;28;20579;-57
2021/08/12 01:36:54;;;;;;;2.65;2.40;;;;;;;;;;5088180;28;20050;-57
2021/08/12 01:39:21;;;;;;;2.63;2.30;;;;;;;;;;5088513;28;20020;-57
2021/08/12 01:41:47;;;;;;;2.17;1.90;;;;;;;;;;5087174;28;20032;-57
2021/08/12 01:44:14;;;;;;;2.00;1.80;;;;;;;;;;5088491;28;20111;-57
2021/08/12 01:46:45;;;;;;;2.60;2.08;;;;;;;;;;5088046;28;20063;-57
2021/08/12 01:49:11;;;;;;;2.25;2.03;;;;;;;;;;5087119;28;20028;-57
2021/08/12 01:51:38;;;;;;;2.75;2.45;;;;;;;;;;5088304;28;20043;-57
2021/08/12 01:54:06;;;;;;;2.50;2.30;;;;;;;;;;5087390;28;20028;-57
2021/08/12 01:56:32;;;;;;;2.35;2.15;;;;;;;;;;5088211;28;20504;-57
2021/08/12 01:59:00;;;;;;;2.33;2.00;;;;;;;;;;5086181;28;20392;-57
2021/08/12 02:01:28;;;;;;;2.25;2.03;;;;;;;;;;5087212;28;20039;-57
2021/08/12 02:03:55;;;;;;;2.42;2.00;;;;;;;;;;5086183;28;20028;-57
2021/08/12 02:06:22;;;;;;;2.78;2.38;;;;;;;;;;5086517;28;20055;-57
2021/08/12 02:08:48;;;;;;;3.10;2.80;;;;;;;;;;5086242;28;20420;-57
2021/08/12 02:11:14;;;;;;;2.45;2.25;;;;;;;;;;5090603;28;20028;-57
2021/08/12 02:13:40;;;;;;;2.58;2.38;;;;;;;;;;5089290;28;20027;-57
2021/08/12 02:16:09;;;;;;;2.70;2.13;;;;;;;;;;5090130;28;20032;-57
2021/08/12 02:18:44;;;;;;;2.65;2.30;;;;;;;;;;5088985;28;20027;-57
2021/08/12 02:21:17;;;;;;;2.80;2.25;;;;;;;;;;5090198;28;20039;-57
2021/08/12 02:23:53;;;;;;;2.63;2.42;;;;;;;;;;5090293;28;20120;-57
2021/08/12 02:26:19;;;;;;;2.90;2.42;;;;;;;;;;5090320;28;20131;-57
2021/08/12 02:28:46;;;;;;;2.80;2.50;;;;;;;;;;5089895;28;20095;-57
2021/08/12 02:31:16;;;;;;;2.97;2.60;;;;;;;;;;5090210;28;20032;-57
2021/08/12 02:33:44;;;;;;;3.40;3.10;;;;;;;;;;5089185;28;20098;-57
2021/08/12 02:36:10;;;;;;;3.05;2.72;;;;;;;;;;5090059;28;20032;-57
2021/08/12 02:38:38;;;;;;;2.70;2.45;;;;;;;;;;5090058;28;20643;-57
2021/08/12 02:41:04;;;;;;;3.10;2.80;;;;;;;;;;5089895;28;20028;-57
2021/08/12 02:43:32;;;;;;;2.60;2.40;;;;;;;;;;5088913;28;20432;-57
2021/08/12 02:46:00;;;;;;;2.97;2.50;;;;;;;;;;5089740;28;20561;-57
2021/08/12 02:48:28;;;;;;;3.60;2.40;;;;;;;;;;5090119;28;20028;-57
2021/08/12 02:50:55;;;;;;;5.72;2.80;;;;;;;;;;5090355;28;20062;-56
2021/08/12 02:53:22;;;;;;;3.00;2.70;;;;;;;;;;5089701;28;20028;-57
2021/08/12 02:55:48;;;;;;;2.78;2.38;;;;;;;;;;5089699;28;20064;-57
2021/08/12 02:58:15;;;;;;;3.78;2.90;;;;;;;;;;5089579;28;20055;-57
2021/08/12 03:00:41;;;;;;;2.47;2.25;;;;;;;;;;5089415;28;20036;-57
2021/08/12 03:03:07;;;;;;;2.65;2.45;;;;;;;;;;5089389;28;20082;-56
2021/08/12 03:05:35;;;;;;;2.95;2.67;;;;;;;;;;5088969;28;20030;-57
2021/08/12 03:08:02;;;;;;;3.42;3.00;;;;;;;;;;5070843;28;20024;-57
2021/08/12 03:10:28;;;;;;;3.80;2.53;;;;;;;;;;5088889;28;20031;-57
2021/08/12 03:12:55;;;;;;;3.25;2.95;;;;;;;;;;5089666;28;20020;-57
2021/08/12 03:15:22;;;;;;;3.58;2.85;;;;;;;;;;5089435;28;20028;-57
2021/08/12 03:17:48;;;;;;;3.17;2.88;;;;;;;;;;5087545;28;20059;-57
2021/08/12 03:20:14;;;;;;;3.80;2.95;;;;;;;;;;5089048;28;20119;-57
2021/08/12 03:22:43;;;;;;;3.33;2.83;;;;;;;;;;5089083;28;20024;-56
2021/08/12 03:25:09;;;;;;;3.78;3.10;;;;;;;;;;5089158;28;20035;-57
2021/08/12 03:27:35;;;;;;;3.20;2.70;;;;;;;;;;5070544;28;20020;-57
2021/08/12 03:30:01;;;;;;;2.97;2.38;;;;;;;;;;5088941;28;20473;-56
2021/08/12 03:32:27;;;;;;;3.20;2.90;;;;;;;;;;5089674;28;20457;-57
2021/08/12 03:34:53;;;;;;;2.60;2.38;;;;;;;;;;5087171;28;20070;-57
2021/08/12 03:37:19;;;;;;;3.45;2.90;;;;;;;;;;5088922;28;20016;-57
2021/08/12 03:39:45;;;;;;;3.08;2.58;;;;;;;;;;5088758;28;20617;-57
2021/08/12 03:42:11;;;;;;;3.08;2.40;;;;;;;;;;5088847;28;20394;-57
2021/08/12 03:44:37;;;;;;;2.80;2.47;;;;;;;;;;5088581;28;20020;-57
2021/08/12 03:47:05;;;;;;;3.85;2.60;;;;;;;;;;5088535;28;20024;-57
2021/08/12 03:49:31;;;;;;;3.03;2.72;;;;;;;;;;5088522;28;20024;-57
2021/08/12 03:51:57;;;;;;;3.65;2.97;;;;;;;;;;5089413;28;20028;-56
2021/08/12 03:54:23;;;;;;;3.03;2.72;;;;;;;;;;5089052;28;20119;-58
2021/08/12 03:56:49;;;;;;;3.15;2.70;;;;;;;;;;5088428;28;20391;-57
2021/08/12 03:59:15;;;;;;;2.95;2.40;;;;;;;;;;5087519;28;20469;-56
2021/08/12 04:01:41;;;;;;;3.20;2.60;;;;;;;;;;5087895;28;20034;-57
2021/08/12 04:04:07;;;;;;;3.17;2.50;;;;;;;;;;5088581;28;20020;-57
2021/08/12 04:06:34;;;;;;;2.95;2.35;;;;;;;;;;5086632;28;20483;-56
2021/08/12 04:09:00;;;;;;;2.78;2.47;;;;;;;;;;5088273;28;20491;-57
2021/08/12 04:11:26;;;;;;;2.95;2.65;;;;;;;;;;5088763;28;20020;-57
2021/08/12 04:13:52;;;;;;;2.70;2.50;;;;;;;;;;5088070;28;20034;-57
2021/08/12 04:16:18;;;;;;;3.20;2.67;;;;;;;;;;5087777;28;20040;-57
2021/08/12 04:18:44;;;;;;;2.95;2.60;;;;;;;;;;5087823;28;20127;-57
2021/08/12 04:21:10;;;;;;;3.30;2.60;;;;;;;;;;5088262;28;20107;-57
2021/08/12 04:23:36;;;;;;;2.85;2.60;;;;;;;;;;5087946;28;20850;-56
2021/08/12 04:26:02;;;;;;;3.10;2.60;;;;;;;;;;5087055;28;20040;-57
2021/08/12 04:28:28;;;;;;;3.35;2.53;;;;;;;;;;5087814;28;20123;-57
2021/08/12 04:30:54;;;;;;;3.70;2.88;;;;;;;;;;5088277;28;20016;-57
2021/08/12 04:33:20;;;;;;;2.78;2.40;;;;;;;;;;5087386;28;20095;-57
2021/08/12 04:35:47;;;;;;;2.95;2.58;;;;;;;;;;5087725;28;20517;-57
2021/08/12 04:38:13;;;;;;;2.92;2.58;;;;;;;;;;5087950;28;20102;-57
2021/08/12 04:40:39;;;;;;;3.15;2.33;;;;;;;;;;5086898;28;20398;-57
2021/08/12 04:43:05;;;;;;;2.83;2.38;;;;;;;;;;5087472;28;20028;-56
2021/08/12 04:45:31;;;;;;;2.42;2.22;;;;;;;;;;5087413;28;20024;-56
2021/08/12 04:48:04;;;;;;;3.28;2.60;;;;;;;;;;5088490;28;20032;-56
2021/08/12 04:50:31;;;;;;;2.65;2.40;;;;;;;;;;5087583;28;20020;-56
2021/08/12 04:52:57;;;;;;;3.55;2.63;;;;;;;;;;5088453;28;20024;-57
2021/08/12 04:55:23;;;;;;;3.08;2.50;;;;;;;;;;5088105;28;20092;-57
2021/08/12 04:57:49;;;;;;;2.47;2.28;;;;;;;;;;5086905;28;20372;-57
2021/08/12 05:00:16;;;;;;;2.30;2.10;;;;;;;;;;5087089;28;20027;-56
2021/08/12 05:02:42;;;;;;;2.50;2.30;;;;;;;;;;5087285;28;20082;-56
2021/08/12 05:05:09;;;;;;;2.40;2.20;;;;;;;;;;5087124;28;20490;-57
2021/08/12 05:07:35;;;;;;;2.90;2.30;;;;;;;;;;5086703;28;20035;-56
2021/08/12 05:10:01;;;;;;;2.60;2.38;;;;;;;;;;5086286;28;20024;-56
2021/08/12 05:12:27;;;;;;;1.75;1.65;;;;;;;;;;5087791;28;20035;-56
2021/08/12 05:14:53;;;;;;;2.60;2.40;;;;;;;;;;5087364;28;20099;-57
2021/08/12 05:17:19;;;;;;;2.33;2.13;;;;;;;;;;5086805;28;20060;-57
2021/08/12 05:19:45;;;;;;;2.38;2.17;;;;;;;;;;5086479;28;20720;-57
2021/08/12 05:22:12;;;;;;;2.88;2.40;;;;;;;;;;5087252;28;20440;-57
2021/08/12 05:24:38;;;;;;;3.33;2.17;;;;;;;;;;5086738;28;20038;-57
2021/08/12 05:27:04;;;;;;;2.70;2.33;;;;;;;;;;5086999;28;20020;-57
2021/08/12 05:29:31;;;;;;;3.58;2.40;;;;;;;;;;5086768;28;20111;-57
2021/08/12 05:31:58;;;;;;;2.67;2.47;;;;;;;;;;5086220;28;20376;-57
2021/08/12 05:34:24;;;;;;;2.55;2.35;;;;;;;;;;5087606;28;20016;-57
2021/08/12 05:36:50;;;;;;;2.63;2.42;;;;;;;;;;5086531;28;20034;-57
2021/08/12 05:39:16;;;;;;;3.72;2.33;;;;;;;;;;5087031;28;20021;-56
2021/08/12 05:41:42;;;;;;;2.35;2.10;;;;;;;;;;5086664;28;20066;-57
2021/08/12 05:44:08;;;;;;;2.58;2.30;;;;;;;;;;5084644;28;20498;-56
2021/08/12 05:46:34;;;;;;;3.40;2.45;;;;;;;;;;5086253;28;20415;-56
2021/08/12 05:49:00;;;;;;;3.05;2.47;;;;;;;;;;5081184;28;20448;-56
2021/08/12 05:51:26;;;;;;;3.72;3.10;;;;;;;;;;5079824;28;20663;-56
2021/08/12 05:53:52;;;;;;;3.28;2.88;;;;;;;;;;5086341;28;20056;-56
2021/08/12 05:56:18;;;;;;;2.83;2.60;;;;;;;;;;5066893;28;21231;-56
2021/08/12 05:58:44;;;;;;;3.03;2.75;;;;;;;;;;5075865;28;20517;-56
2021/08/12 06:01:10;;;;;;;4.20;2.97;;;;;;;;;;5072772;28;20485;-56
2021/08/12 06:03:36;;;;;;;2.83;2.50;;;;;;;;;;5076776;28;20627;-56
2021/08/12 06:06:03;;;;;;;2.50;2.30;;;;;;;;;;5086310;28;20031;-56
2021/08/12 06:08:29;;;;;;;3.05;2.58;;;;;;;;;;5081824;28;20085;-56
2021/08/12 06:10:55;;;;;;;2.33;2.13;;;;;;;;;;5073051;28;20035;-55
2021/08/12 06:13:21;;;;;;;2.80;2.47;;;;;;;;;;5048741;28;20112;-56
2021/08/12 06:15:47;;;;;;;2.33;2.13;;;;;;;;;;5084555;28;20047;-56
2021/08/12 06:18:14;;;;;;;2.40;2.20;;;;;;;;;;5085832;28;20153;-56
2021/08/12 06:20:41;;;;;;;2.97;2.20;;;;;;;;;;5086158;28;20115;-56
2021/08/12 06:23:08;;;;;;;2.78;2.10;;;;;;;;;;5085697;28;20039;-57
2021/08/12 06:25:34;;;;;;;2.35;2.13;;;;;;;;;;5085732;28;20032;-57
2021/08/12 06:28:01;;;;;;;2.65;2.42;;;;;;;;;;5086366;28;20024;-57
2021/08/12 06:30:27;;;;;;;2.60;2.20;;;;;;;;;;5081799;28;20028;-57
2021/08/12 06:32:53;;;;;;;2.00;1.80;;;;;;;;;;5082477;28;20493;-57
2021/08/12 06:35:20;;;;;;;2.30;2.10;;;;;;;;;;5086032;28;20043;-57
2021/08/12 06:37:47;;;;;;;2.20;2.00;;;;;;;;;;5085824;28;20224;-56
2021/08/12 06:40:14;;;;;;;3.20;2.33;;;;;;;;;;5085214;28;20035;-57
2021/08/12 06:42:40;;;;;;;2.35;2.10;;;;;;;;;;5079432;28;20028;-56
2021/08/12 06:45:06;;;;;;;1.90;1.80;;;;;;;;;;5082552;28;20408;-56
2021/08/12 06:47:33;;;;;;;2.00;1.80;;;;;;;;;;5082402;28;20398;-56
2021/08/12 06:49:59;;;;;;;3.05;2.10;;;;;;;;;;5086121;28;20020;-56
2021/08/12 06:52:25;;;;;;;2.30;2.10;;;;;;;;;;5086452;28;20372;-56
2021/08/12 06:54:51;;;;;;;1.98;1.83;;;;;;;;;;5086669;28;20028;-56
2021/08/12 06:57:18;;;;;;;2.30;1.92;;;;;;;;;;5086570;28;20424;-56
2021/08/12 06:59:44;;;;;;;2.40;1.65;;;;;;;;;;5074441;28;20021;-56
2021/08/12 07:02:10;;;;;;;2.13;1.92;;;;;;;;;;5069019;28;20028;-55
2021/08/12 07:04:36;;;;;;;3.40;2.25;;;;;;;;;;5076914;28;20496;-55
2021/08/12 07:07:02;;;;;;;1.83;1.73;;;;;;;;;;5067638;28;20075;-56
2021/08/12 07:09:29;;;;;;;2.03;1.90;;;;;;;;;;5067487;28;20279;-56
2021/08/12 07:11:55;;;;;;;2.05;1.80;;;;;;;;;;5078952;28;20441;-55
2021/08/12 07:14:21;;;;;;;2.05;1.85;;;;;;;;;;5088157;28;20036;-56
2021/08/12 07:16:47;;;;;;;2.13;1.92;;;;;;;;;;5072215;28;20543;-56
2021/08/12 07:19:13;;;;;;;2.10;1.98;;;;;;;;;;5085474;28;20089;-56
2021/08/12 07:21:41;;;;;;;2.38;1.85;;;;;;;;;;5088266;28;20491;-57
2021/08/12 07:24:07;;;;;;;2.20;1.92;;;;;;;;;;5087929;28;20038;-54
2021/08/12 07:26:34;;;;;;;1.92;1.73;;;;;;;;;;5070092;28;20052;-55
2021/08/12 07:29:00;;;;;;;2.22;2.03;;;;;;;;;;5088683;28;20024;-56
2021/08/12 07:31:26;;;;;;;1.80;1.70;;;;;;;;;;5088539;28;20016;-55
2021/08/12 07:33:52;;;;;;;2.00;1.80;;;;;;;;;;5057646;28;20064;-55
2021/08/12 07:36:19;;;;;;;1.55;1.45;;;;;;;;;;5068825;28;20024;-54
2021/08/12 07:38:45;;;;;;;1.65;1.55;;;;;;;;;;5085550;28;20031;-55
2021/08/12 07:41:11;;;;;;;1.70;1.60;;;;;;;;;;5089109;28;20024;-55
2021/08/12 07:43:38;;;;;;;1.30;1.20;;;;;;;;;;5088214;28;20047;-54
2021/08/12 07:46:04;;;;;;;1.88;1.55;;;;;;;;;;5088836;28;20098;-55
2021/08/12 07:48:30;;;;;;;1.52;1.42;;;;;;;;;;5086288;28;20115;-55
2021/08/12 07:50:56;;;;;;;1.55;1.45;;;;;;;;;;5083600;28;20080;-55
2021/08/12 07:53:22;;;;;;;1.52;1.40;;;;;;;;;;5072223;28;20037;-55
2021/08/12 07:55:48;;;;;;;1.40;1.30;;;;;;;;;;5071342;28;20060;-55
2021/08/12 07:58:14;;;;;;;1.58;1.20;;;;;;;;;;5087277;28;20032;-54
2021/08/12 08:00:40;;;;;;;1.08;1.08;;;;;;;;;;5083684;28;20502;-55
2021/08/12 08:03:07;;;;;;;1.00;0.93;;;;;;;;;;5087484;28;20031;-51
2021/08/12 08:05:33;;;;;;;1.52;1.30;;;;;;;;;;5081930;28;20023;-54
2021/08/12 08:07:59;;;;;;;1.25;1.10;;;;;;;;;;5084274;28;21177;-55
2021/08/12 08:10:26;;;;;;;1.17;1.08;;;;;;;;;;5081554;28;20035;-55
2021/08/12 08:12:53;;;;;;;1.00;0.90;;;;;;;;;;5086554;28;20139;-55
2021/08/12 08:15:20;;;;;;;1.20;1.10;;;;;;;;;;5069008;28;20368;-56
2021/08/12 08:17:46;;;;;;;0.82;0.80;;;;;;;;;;5078877;28;20110;-54
2021/08/12 08:20:13;;;;;;;1.00;1.00;;;;;;;;;;5085227;28;20901;-55
2021/08/12 08:22:39;;;;;;;1.23;1.13;;;;;;;;;;5087523;28;20107;-54
2021/08/12 08:25:06;;;;;;;1.20;1.10;;;;;;;;;;5086412;28;20032;-54
2021/08/12 08:27:32;;;;;;;0.98;0.85;;;;;;;;;;5085147;28;20419;-55
2021/08/12 08:29:58;;;;;;;0.90;0.90;;;;;;;;;;5086599;28;20024;-55
2021/08/12 08:32:25;;;;;;;1.10;1.00;;;;;;;;;;5088060;28;20024;-55
2021/08/12 08:34:52;;;;;;;1.15;1.02;;;;;;;;;;5087106;28;20410;-54
2021/08/12 08:37:18;;;;;;;1.05;1.00;;;;;;;;;;5087860;28;20044;-54
2021/08/12 08:39:45;;;;;;;0.90;0.90;;;;;;;;;;5087654;28;20402;-55
2021/08/12 08:42:12;;;;;;;0.95;0.90;;;;;;;;;;5069725;28;20043;-54
2021/08/12 08:44:40;;;;;;;0.90;0.90;;;;;;;;;;5087928;28;20023;-54
2021/08/12 08:47:08;;;;;;;0.80;0.80;;;;;;;;;;5087089;28;20020;-54
2021/08/12 08:49:37;;;;;;;0.70;0.70;;;;;;;;;;5086358;28;20023;-54
2021/08/12 08:52:03;;;;;;;0.88;0.88;;;;;;;;;;5087585;28;20533;-56
2021/08/12 08:54:30;;;;;;;1.08;1.00;;;;;;;;;;5087566;28;20020;-54
2021/08/12 08:56:57;;;;;;;0.85;0.82;;;;;;;;;;5085577;28;20115;-55
2021/08/12 08:59:24;;;;;;;0.80;0.80;;;;;;;;;;5087253;28;20024;-55
2021/08/12 09:01:50;;;;;;;1.08;0.90;;;;;;;;;;5074100;28;20479;-55
2021/08/12 09:04:16;;;;;;;0.80;0.80;;;;;;;;;;5069294;28;20024;-55
2021/08/12 09:06:42;;;;;;;1.00;0.95;;;;;;;;;;5080038;28;20818;-54
2021/08/12 09:09:10;;;;;;;0.80;0.80;;;;;;;;;;5087617;28;20051;-53
2021/08/12 09:11:36;;;;;;;1.08;1.00;;;;;;;;;;5081071;28;20501;-53
2021/08/12 09:14:22;;;;;;;1.13;0.90;;;;;;;;;;5087801;28;20046;-54
2021/08/12 09:16:48;;;;;;;0.60;0.60;;;;;;;;;;5085142;28;20028;-54
2021/08/12 09:19:20;;;;;;;0.70;0.70;;;;;;;;;;5074372;28;20495;-54
2021/08/12 09:21:50;;;;;;;0.70;0.70;;;;;;;;;;5073028;28;20055;-55
2021/08/12 09:24:16;;;;;;;0.73;0.73;;;;;;;;;;5082952;28;20103;-54
2021/08/12 09:26:42;;;;;;;1.10;1.02;;;;;;;;;;5087082;28;20137;-54
2021/08/12 09:29:08;;;;;;;0.90;0.90;;;;;;;;;;5074244;28;20048;-54
2021/08/12 09:31:54;;;;;;;0.73;0.73;;;;;;;;;;5087857;28;20070;-55
2021/08/12 09:34:20;;;;;;;0.80;0.80;;;;;;;;;;5087456;28;20387;-54
2021/08/12 09:36:46;;;;;;;0.57;0.57;;;;;;;;;;5086993;28;20056;-54
2021/08/12 09:39:19;;;;;;;0.80;0.80;;;;;;;;;;5083578;28;20020;-55
2021/08/12 09:41:46;;;;;;;0.70;0.70;;;;;;;;;;5085523;28;20028;-53
2021/08/12 09:44:31;;;;;;;0.60;0.60;;;;;;;;;;5087297;28;20448;-53
2021/08/12 09:46:58;;;;;;;0.80;0.60;;;;;;;;;;5067888;28;20036;-54
2021/08/12 09:49:24;;;;;;;0.70;0.70;;;;;;;;;;5066668;28;20063;-55
2021/08/12 09:51:51;;;;;;;0.73;0.70;;;;;;;;;;5066900;28;20076;-54
2021/08/12 09:54:37;;;;;;;0.75;0.75;;;;;;;;;;5072102;28;20024;-54
2021/08/12 09:57:14;;;;;;;0.60;0.60;;;;;;;;;;5084618;28;20032;-53
2021/08/12 09:59:50;;;;;;;0.80;0.80;;;;;;;;;;5084950;28;20027;-53
2021/08/12 10:02:16;;;;;;;0.80;0.80;;;;;;;;;;5086847;28;20024;-55
2021/08/12 10:04:42;;;;;;;0.80;0.80;;;;;;;;;;5085024;28;20032;-55
2021/08/12 10:07:29;;;;;;;0.70;0.70;;;;;;;;;;5085561;28;20094;-55
2021/08/12 10:09:55;;;;;;;0.60;0.60;;;;;;;;;;5084923;28;20034;-54
2021/08/12 10:12:34;;;;;;;0.60;0.60;;;;;;;;;;5083745;28;20429;-54
2021/08/12 10:15:01;;;;;;;0.70;0.70;;;;;;;;;;5085727;28;20024;-55
2021/08/12 10:17:28;;;;;;;0.77;0.77;;;;;;;;;;5083547;28;20092;-55
2021/08/12 10:19:55;;;;;;;0.50;0.50;;;;;;;;;;5078586;28;20036;-55
2021/08/12 10:22:21;;;;;;;1.25;0.88;;;;;;;;;;5086274;28;20456;-55
2021/08/12 10:24:48;;;;;;;0.70;0.70;;;;;;;;;;5082999;28;20504;-55
2021/08/12 10:27:14;;;;;;;0.70;0.70;;;;;;;;;;5084781;28;20403;-55
2021/08/12 10:29:43;;;;;;;1.20;1.10;;;;;;;;;;5083183;28;20098;-55
2021/08/12 10:32:11;;;;;;;1.17;0.90;;;;;;;;;;5071956;28;20028;-55
2021/08/12 10:34:37;;;;;;;1.23;1.02;;;;;;;;;;5085733;28;20031;-52
2021/08/12 10:37:03;;;;;;;1.02;0.80;;;;;;;;;;5083614;28;20466;-54
2021/08/12 10:39:29;;;;;;;1.10;1.00;;;;;;;;;;5084561;28;20059;-53
2021/08/12 10:41:56;;;;;;;0.80;0.80;;;;;;;;;;5083985;28;20031;-54
2021/08/12 10:44:22;;;;;;;0.90;0.90;;;;;;;;;;5089806;28;20156;-55
2021/08/12 10:46:48;;;;;;;0.90;0.90;;;;;;;;;;5083223;28;20036;-55
2021/08/12 10:49:24;;;;;;;0.75;0.75;;;;;;;;;;5069472;28;20017;-55
2021/08/12 10:52:00;;;;;;;0.88;0.88;;;;;;;;;;5084604;28;20028;-53
2021/08/12 10:54:26;;;;;;;0.70;0.70;;;;;;;;;;5090033;28;20020;-54
2021/08/12 10:57:12;;;;;;;0.88;0.70;;;;;;;;;;5089498;28;20562;-54
2021/08/12 10:59:38;;;;;;;0.80;0.80;;;;;;;;;;5087349;28;20032;-55
2021/08/12 11:02:23;;;;;;;0.82;0.82;;;;;;;;;;5085333;28;20028;-53
2021/08/12 11:04:51;;;;;;;0.80;0.80;;;;;;;;;;5070252;28;20023;-54
2021/08/12 11:07:36;;;;;;;0.70;0.70;;;;;;;;;;5085180;28;20028;-55
2021/08/12 11:10:02;;;;;;;0.70;0.70;;;;;;;;;;5088949;28;20043;-55
2021/08/12 11:12:47;;;;;;;1.20;1.10;;;;;;;;;;5081274;28;20395;-54
2021/08/12 11:15:13;;;;;;;1.02;1.00;;;;;;;;;;5084177;28;20035;-55
2021/08/12 11:17:53;;;;;;;0.90;0.90;;;;;;;;;;5085264;28;20028;-55
2021/08/12 11:20:30;;;;;;;1.10;1.00;;;;;;;;;;5078081;28;20032;-57
2021/08/12 11:22:56;;;;;;;1.20;1.10;;;;;;;;;;5089034;28;20115;-56
2021/08/12 11:25:42;;;;;;;1.70;1.60;;;;;;;;;;5088109;28;20039;-56
2021/08/12 11:28:28;;;;;;;1.60;1.50;;;;;;;;;;5086790;28;20037;-56
2021/08/12 11:30:54;;;;;;;2.25;1.80;;;;;;;;;;5082013;28;20024;-54
2021/08/12 11:33:23;;;;;;;1.67;1.58;;;;;;;;;;5082063;28;20020;-55
2021/08/12 11:36:08;;;;;;;1.58;1.48;;;;;;;;;;5073206;28;20054;-56
2021/08/12 11:38:35;;;;;;;1.20;1.10;;;;;;;;;;5074885;28;20043;-56
2021/08/12 11:41:02;;;;;;;1.13;1.08;;;;;;;;;;5084298;28;20036;-56
2021/08/12 11:43:28;;;;;;;1.35;1.25;;;;;;;;;;5084564;28;20036;-56
2021/08/12 11:45:56;;;;;;;2.05;1.13;;;;;;;;;;5085625;28;20027;-55
2021/08/12 11:48:24;;;;;;;1.25;1.15;;;;;;;;;;5064365;28;20020;-55
2021/08/12 11:50:51;;;;;;;1.00;1.00;;;;;;;;;;5070363;28;20127;-56
2021/08/12 11:53:35;;;;;;;0.90;0.90;;;;;;;;;;5081031;28;20048;-56
2021/08/12 11:56:07;;;;;;;0.90;0.90;;;;;;;;;;5080755;28;20048;-56
2021/08/12 11:58:33;;;;;;;2.10;1.00;;;;;;;;;;5084561;28;20038;-56
2021/08/12 12:01:09;;;;;;;1.05;0.95;;;;;;;;;;5081492;28;20036;-56
2021/08/12 12:03:35;;;;;;;1.20;1.10;;;;;;;;;;5075238;28;20032;-57
2021/08/12 12:06:01;;;;;;;1.17;1.08;;;;;;;;;;5075275;28;20078;-56
2021/08/12 12:08:28;;;;;;;1.00;1.00;;;;;;;;;;5081743;28;20454;-56
2021/08/12 12:10:54;;;;;;;1.08;1.00;;;;;;;;;;5058615;28;20483;-56
2021/08/12 12:13:21;;;;;;;1.20;1.10;;;;;;;;;;5085066;28;20028;-56
2021/08/12 12:15:48;;;;;;;1.00;1.00;;;;;;;;;;5059217;28;20020;-56
2021/08/12 12:18:16;;;;;;;1.00;1.00;;;;;;;;;;5084108;28;20031;-56
2021/08/12 12:20:44;;;;;;;1.05;1.00;;;;;;;;;;5066596;28;20060;-56
2021/08/12 12:23:11;;;;;;;1.23;1.13;;;;;;;;;;5087233;28;20024;-56
2021/08/12 12:25:40;;;;;;;0.80;0.80;;;;;;;;;;5075923;28;20114;-56
2021/08/12 12:28:07;;;;;;;1.30;1.00;;;;;;;;;;5086122;28;20073;-56
2021/08/12 12:30:34;;;;;;;0.90;0.90;;;;;;;;;;5078971;28;20755;-57
2021/08/12 12:33:04;;;;;;;0.80;0.80;;;;;;;;;;5085666;28;20109;-56
2021/08/12 12:35:32;;;;;;;1.00;0.90;;;;;;;;;;5083631;28;20573;-57
2021/08/12 12:37:59;;;;;;;0.80;0.80;;;;;;;;;;5081816;28;20032;-56
2021/08/12 12:40:27;;;;;;;0.98;0.90;;;;;;;;;;5082027;28;20039;-56
2021/08/12 12:42:53;;;;;;;1.02;1.02;;;;;;;;;;5063309;28;20028;-56
2021/08/12 12:45:21;;;;;;;1.33;1.20;;;;;;;;;;5079197;28;20043;-56
2021/08/12 12:47:48;;;;;;;1.25;1.15;;;;;;;;;;5071828;28;20073;-57
2021/08/12 12:50:16;;;;;;;1.10;1.05;;;;;;;;;;5081773;28;20055;-57
2021/08/12 12:52:57;;;;;;;1.30;1.20;;;;;;;;;;5057938;28;20031;-57
2021/08/12 12:55:24;;;;;;;1.38;1.27;;;;;;;;;;5084337;28;20082;-56
2021/08/12 12:57:51;;;;;;;1.02;1.02;;;;;;;;;;5058030;28;20028;-56
2021/08/12 13:00:27;;;;;;;1.00;1.00;;;;;;;;;;5080502;28;20452;-56
2021/08/12 13:02:56;;;;;;;0.90;0.90;;;;;;;;;;5075397;28;20106;-57
2021/08/12 13:05:23;;;;;;;1.17;1.08;;;;;;;;;;5080117;28;20396;-57
2021/08/12 13:07:51;;;;;;;0.90;0.90;;;;;;;;;;5073825;28;20024;-57
2021/08/12 13:10:21;;;;;;;1.17;1.08;;;;;;;;;;5073498;28;20392;-56
2021/08/12 13:12:57;;;;;;;1.20;1.10;;;;;;;;;;5050724;28;20433;-57
2021/08/12 13:15:24;;;;;;;1.00;0.80;;;;;;;;;;5084631;28;20032;-57
2021/08/12 13:17:56;;;;;;;0.90;0.90;;;;;;;;;;5084661;28;20519;-57
2021/08/12 13:20:23;;;;;;;1.03;1.00;;;;;;;;;;5083225;28;20040;-57
2021/08/12 13:22:49;;;;;;;0.80;0.80;;;;;;;;;;5081709;28;20028;-57
2021/08/12 13:25:19;;;;;;;1.15;1.05;;;;;;;;;;5078382;28;20027;-56
2021/08/12 13:27:46;;;;;;;1.10;1.00;;;;;;;;;;5077099;28;20133;-57
2021/08/12 13:30:13;;;;;;;1.00;1.00;;;;;;;;;;5047732;28;20557;-56
2021/08/12 13:32:39;;;;;;;1.40;1.30;;;;;;;;;;5056652;28;20078;-57
2021/08/12 13:35:06;;;;;;;1.20;1.10;;;;;;;;;;5065065;28;20016;-57
2021/08/12 13:37:32;;;;;;;1.27;1.20;;;;;;;;;;5082322;28;20032;-57
2021/08/12 13:39:58;;;;;;;1.23;1.13;;;;;;;;;;5075908;28;20031;-57
2021/08/12 13:42:25;;;;;;;1.23;1.13;;;;;;;;;;5062433;28;20456;-57
2021/08/12 13:44:51;;;;;;;0.80;0.80;;;;;;;;;;5084994;28;20048;-57
2021/08/12 13:47:17;;;;;;;0.80;0.80;;;;;;;;;;5083861;28;20040;-57
2021/08/12 13:49:43;;;;;;;0.93;0.93;;;;;;;;;;5074161;28;20439;-57
2021/08/12 13:52:10;;;;;;;1.30;1.20;;;;;;;;;;5071065;28;20494;-57
2021/08/12 13:54:36;;;;;;;0.95;0.90;;;;;;;;;;5085815;28;20047;-57
2021/08/12 13:57:05;;;;;;;0.90;0.90;;;;;;;;;;5078709;28;20031;-56
2021/08/12 13:59:31;;;;;;;0.90;0.90;;;;;;;;;;5075680;28;20804;-56
2021/08/12 14:01:57;;;;;;;0.95;0.95;;;;;;;;;;5085451;28;20439;-56
2021/08/12 14:04:24;;;;;;;1.10;0.90;;;;;;;;;;5073286;28;20025;-57
2021/08/12 14:06:50;;;;;;;1.00;1.00;;;;;;;;;;5080089;28;20421;-57
2021/08/12 14:09:17;;;;;;;0.95;0.95;;;;;;;;;;5083224;28;20043;-57
2021/08/12 14:11:44;;;;;;;0.98;0.98;;;;;;;;;;5082935;28;20035;-57
2021/08/12 14:14:10;;;;;;;1.08;1.08;;;;;;;;;;5080266;28;20035;-57
2021/08/12 14:16:38;;;;;;;0.90;0.90;;;;;;;;;;5082787;28;20067;-57
2021/08/12 14:19:05;;;;;;;1.30;1.20;;;;;;;;;;5084641;28;20032;-57
2021/08/12 14:21:31;;;;;;;1.30;1.20;;;;;;;;;;5085479;28;20066;-57
2021/08/12 14:23:57;;;;;;;1.20;1.10;;;;;;;;;;5084523;28;20032;-58
2021/08/12 14:26:23;;;;;;;1.75;1.42;;;;;;;;;;5084231;28;20038;-58
2021/08/12 14:28:49;;;;;;;1.17;1.08;;;;;;;;;;5084652;28;20020;-57
2021/08/12 14:31:16;;;;;;;1.20;1.10;;;;;;;;;;5083470;28;20628;-58
2021/08/12 14:33:43;;;;;;;1.15;1.13;;;;;;;;;;5062564;28;20463;-57
2021/08/12 14:36:11;;;;;;;1.13;1.02;;;;;;;;;;5064279;28;20434;-57
2021/08/12 14:38:38;;;;;;;1.40;1.30;;;;;;;;;;5073074;28;20411;-58
2021/08/12 14:41:06;;;;;;;1.40;1.30;;;;;;;;;;5064983;28;20044;-58
2021/08/12 14:43:32;;;;;;;1.38;1.20;;;;;;;;;;5072451;28;20040;-57
2021/08/12 14:45:58;;;;;;;1.50;1.40;;;;;;;;;;5061734;28;20113;-57